FYKM

Details ICAO FYKM (MPA)
Name KATIMA MULILO
Region Namibia
Timezone Africa/Windhoek (UTC+2.0)
Plans Departing 3
Arriving 0
Stats Elevation 3,144 ft / 958 m (AMSL)
Location -17.634428° 24.176657°
Runways 1
Magnetic Variation 6.867° W
Sunrise 2018-05-23 04:45:05 UTC / 2018-05-23 06:45:05 Local
Sunset 2018-05-23 15:57:51 UTC / 2018-05-23 17:57:51 Local
Advertisement - Login to hide

Runways

ID Width Length Bearing (true) Bearing (mag) Surface Threshold Offset Overrun Length
09 128 ft / 39 m 7,515 ft / 2,290 m 80.34° 87.21° Asphalt 0 ft / 0 m 0 ft / 0 m
27 128 ft / 39 m 7,515 ft / 2,290 m 260.34° 267.21° Asphalt 0 ft / 0 m 0 ft / 0 m

Map

Weather


0- 5 10 15 20 25 30 35+ Temperature / ° C

Clouds and Precipitation
Forecast for 2018-05-23 12:00 UTC. Updated 15 minutes ago

Ground ~20,000 ft ~40,000 ft Winds

METAR

FYKM 231100Z 00000KT 9999 FEW030 27/12 Q1022

TAF

Not found

Frequencies

Tower 125.60 MHz TWR
Warning: Do not use this data for real-world aviation or navigation. No guarantee of current accuracy is given.